Time;durP1;ratioP1;P1;durP2;ratioP2;P2;SDS_P1;SDS_P2;PMS_P1;PMS_P2;Temp;Humidity;BMP_temperature;BMP_pressure;BME280_temperature;BME280_humidity;BME280_pressure;Samples;Min_cycle;Max_cycle;Signal;HPM_P1;HPM_P2
2023/04/10 00:01:16;;;;;;;20.70;14.97;;;;;;;0.75;89.44;98299.63;6129221;28;20328;-89
2023/04/10 00:04:18;;;;;;;21.00;14.63;;;;;;;1.31;89.39;98390.75;6114169;28;20772;-91
2023/04/10 00:07:20;;;;;;;19.17;14.70;;;;;;;2.58;89.56;98583.50;6130661;28;20326;-89
2023/04/10 00:10:25;;;;;;;19.73;13.53;;;;;;;2.18;89.50;98502.91;6099094;28;20240;-90
2023/04/10 00:13:27;;;;;;;18.73;14.27;;;;;;;2.58;89.42;98572.16;6126778;28;20293;-90
2023/04/10 00:16:29;;;;;;;18.20;13.20;;;;;;;2.16;89.59;98515.38;6130124;28;20245;-90
2023/04/10 00:19:32;;;;;;;18.03;13.50;;;;;;;1.95;89.43;98470.44;6126931;28;20256;-90
2023/04/10 00:22:34;;;;;;;22.03;14.40;;;;;;;1.96;89.43;98486.03;6130134;28;20263;-90
2023/04/10 00:25:36;;;;;;;17.73;12.50;;;;;;;0.69;89.29;98278.44;6130661;28;20389;-89
2023/04/10 00:28:38;;;;;;;17.83;12.23;;;;;;;0.24;88.84;98230.75;6113380;28;20244;-89
2023/04/10 00:31:40;;;;;;;17.33;12.50;;;;;;;1.66;89.57;98445.50;6114501;28;20622;-89
2023/04/10 00:34:42;;;;;;;17.90;13.47;;;;;;;1.58;89.50;98421.91;6137628;28;20831;-89
2023/04/10 00:37:44;;;;;;;20.63;14.80;;;;;;;2.22;89.42;98519.19;6119922;28;20854;-90
2023/04/10 00:40:46;;;;;;;20.23;14.13;;;;;;;1.69;89.55;98450.44;6129205;28;20233;-90
2023/04/10 00:43:49;;;;;;;21.13;14.27;;;;;;;1.75;89.47;98462.91;6122099;28;20322;-89
2023/04/10 00:46:52;;;;;;;18.03;12.67;;;;;;;1.97;89.38;98500.81;6124481;28;20235;-89
2023/04/10 00:49:54;;;;;;;20.27;13.90;;;;;;;2.09;89.83;98524.94;6150358;28;20623;-91
2023/04/10 00:52:57;;;;;;;19.80;14.13;;;;;;;1.54;89.53;98426.66;6117607;28;20235;-89
2023/04/10 00:56:01;;;;;;;19.23;13.93;;;;;;;1.92;89.63;98505.75;6118903;28;20244;-89
2023/04/10 00:59:03;;;;;;;18.03;12.87;;;;;;;1.54;89.51;98447.66;6134332;29;20374;-89
2023/04/10 01:02:09;;;;;;;17.83;12.47;;;;;;;0.98;89.41;98365.31;6117752;28;20256;-90
2023/04/10 01:05:12;;;;;;;20.67;13.97;;;;;;;2.12;89.48;98555.31;6134659;28;20373;-88
2023/04/10 01:08:34;;;;;;;18.60;13.17;;;;;;;1.57;89.60;98487.69;6131553;28;20232;-89
2023/04/10 01:12:14;;;;;;;21.23;13.80;;;;;;;2.06;89.75;98549.72;6102467;28;20745;-90
2023/04/10 01:15:24;;;;;;;20.30;14.30;;;;;;;1.61;89.79;98494.28;6129929;28;20269;-89
2023/04/10 01:18:37;;;;;;;23.10;14.27;;;;;;;1.63;89.92;98492.31;6133817;28;20800;-90
2023/04/10 01:21:40;;;;;;;19.90;12.77;;;;;;;1.50;89.51;98471.78;6133589;28;20319;-91
2023/04/10 01:25:14;;;;;;;24.20;14.33;;;;;;;1.61;89.64;98473.25;6117422;28;20223;-89
2023/04/10 01:28:41;;;;;;;20.90;13.13;;;;;;;2.11;89.85;98549.22;6108290;28;20714;-90
2023/04/10 01:31:57;;;;;;;18.13;12.43;;;;;;;1.52;89.71;98465.38;6131796;28;20226;-90
2023/04/10 01:35:05;;;;;;;19.60;12.87;;;;;;;1.00;89.76;98413.22;6117614;28;20721;-89
2023/04/10 01:38:10;;;;;;;20.77;13.53;;;;;;;1.84;89.64;98513.63;6127739;28;20727;-90
2023/04/10 01:41:14;;;;;;;21.80;14.67;;;;;;;1.47;89.70;98430.91;6117704;28;20250;-90
2023/04/10 01:44:20;;;;;;;21.67;13.93;;;;;;;1.90;89.63;98522.66;6132513;28;20250;-89
2023/04/10 01:47:24;;;;;;;18.17;13.17;;;;;;;2.18;89.72;98549.41;6130488;28;20258;-90
2023/04/10 01:50:29;;;;;;;21.17;14.73;;;;;;;2.03;89.84;98525.63;6113477;28;20240;-89
2023/04/10 01:53:31;;;;;;;18.97;14.03;;;;;;;1.34;89.42;98472.63;6133402;28;20234;-89
2023/04/10 01:56:33;;;;;;;24.83;15.37;;;;;;;1.45;89.89;98460.97;6131460;28;20236;-89
2023/04/10 01:59:38;;;;;;;20.70;13.97;;;;;;;0.26;89.57;98272.53;6123845;28;20248;-89
2023/04/10 02:02:41;;;;;;;19.40;13.70;;;;;;;1.81;89.92;98512.16;6132681;28;20263;-89
2023/04/10 02:06:01;;;;;;;22.07;14.30;;;;;;;2.09;89.80;98545.97;6125854;28;20233;-90
2023/04/10 02:09:11;;;;;;;21.93;14.07;;;;;;;2.06;89.76;98552.34;6098530;28;20718;-89
2023/04/10 02:12:22;;;;;;;17.20;13.03;;;;;;;0.85;89.78;98358.94;6121324;28;20306;-89
2023/04/10 02:15:29;;;;;;;15.73;11.67;;;;;;;1.99;89.77;98542.69;6117886;28;20227;-89
2023/04/10 02:18:34;;;;;;;17.27;12.13;;;;;;;1.01;89.69;98401.75;6132713;28;20233;-89
2023/04/10 02:21:38;;;;;;;19.10;12.43;;;;;;;1.26;89.62;98454.22;6142654;28;20735;-89
2023/04/10 02:24:41;;;;;;;20.40;13.50;;;;;;;-0.15;89.36;98220.06;6131702;28;20704;-89
2023/04/10 02:27:44;;;;;;;17.83;13.07;;;;;;;1.69;89.45;98539.75;6116372;28;20247;-90
2023/04/10 02:30:47;;;;;;;18.97;12.03;;;;;;;-0.14;89.54;98265.44;6132382;28;20276;-89
2023/04/10 02:33:49;;;;;;;18.07;11.80;;;;;;;1.57;89.62;98538.41;6131531;28;20239;-89
2023/04/10 02:36:51;;;;;;;17.97;12.43;;;;;;;-0.78;89.57;98194.38;6117349;28;21008;-90
2023/04/10 02:39:54;;;;;;;17.23;11.73;;;;;;;-0.14;89.73;98289.00;6116537;28;20240;-90
2023/04/10 02:42:58;;;;;;;16.60;11.83;;;;;;;1.48;89.72;98534.16;6133063;28;20242;-89
2023/04/10 02:46:00;;;;;;;19.13;12.97;;;;;;;0.79;89.75;98446.97;6133259;28;20217;-89
2023/04/10 02:49:09;;;;;;;17.30;12.17;;;;;;;-0.67;89.68;98235.13;6149566;28;20295;-89
2023/04/10 02:52:12;;;;;;;21.87;14.83;;;;;;;0.33;89.90;98382.78;6164616;28;20217;-89
2023/04/10 02:55:14;;;;;;;22.53;13.93;;;;;;;0.35;89.78;98389.50;6148677;28;20221;-90
2023/04/10 02:58:16;;;;;;;22.10;13.03;;;;;;;0.98;89.86;98509.59;6150790;28;20240;-90
2023/04/10 03:01:18;;;;;;;22.07;14.47;;;;;;;0.68;90.09;98461.19;6132524;28;20239;-89
2023/04/10 03:04:22;;;;;;;18.10;13.37;;;;;;;0.91;90.08;98503.38;6133113;28;20760;-90
2023/04/10 03:07:24;;;;;;;18.10;12.63;;;;;;;0.83;89.90;98494.66;6132141;28;20241;-90
2023/04/10 03:10:28;;;;;;;17.23;12.23;;;;;;;0.64;89.89;98454.63;6128469;28;20317;-89
2023/04/10 03:13:30;;;;;;;23.67;14.70;;;;;;;0.61;90.19;98427.91;6117139;28;20652;-90
2023/04/10 03:16:32;;;;;;;23.43;15.37;;;;;;;0.82;90.52;98451.06;6122443;28;20239;-90
2023/04/10 03:19:36;;;;;;;23.70;14.63;;;;;;;1.03;90.44;98496.88;6116301;28;20230;-89
2023/04/10 03:22:39;;;;;;;25.63;15.37;;;;;;;0.93;90.33;98483.03;6127635;28;20245;-89
2023/04/10 03:25:43;;;;;;;21.53;14.37;;;;;;;0.21;90.20;98385.69;6115287;28;20237;-89
2023/04/10 03:28:45;;;;;;;22.87;14.80;;;;;;;0.71;90.42;98479.22;6115943;28;20242;-89
2023/04/10 03:31:47;;;;;;;20.93;14.53;;;;;;;1.15;90.50;98544.59;6123301;28;20262;-89
2023/04/10 03:34:50;;;;;;;25.10;15.27;;;;;;;0.14;90.26;98389.09;6131204;28;20241;-89
2023/04/10 03:37:52;;;;;;;23.23;15.40;;;;;;;0.29;90.26;98436.47;6147188;28;20226;-89
2023/04/10 03:40:54;;;;;;;21.43;14.10;;;;;;;0.51;90.50;98469.97;6130756;28;20234;-90
2023/04/10 03:44:02;;;;;;;19.10;13.10;;;;;;;-0.48;90.23;98328.28;6136381;28;20493;-89
2023/04/10 03:47:04;;;;;;;25.00;14.93;;;;;;;-1.02;90.30;98238.69;6110814;28;20254;-89
2023/04/10 03:50:06;;;;;;;23.97;14.83;;;;;;;0.83;90.71;98532.19;6124568;28;20234;-89
2023/04/10 03:53:16;;;;;;;18.93;12.43;;;;;;;-1.11;90.41;98253.50;6130531;28;20582;-90
2023/04/10 03:56:19;;;;;;;21.10;14.57;;;;;;;0.37;90.52;98499.41;6113840;28;20249;-90
2023/04/10 03:59:21;;;;;;;18.40;12.17;;;;;;;-0.04;90.47;98457.28;6114532;28;20247;-89
2023/04/10 04:02:35;;;;;;;20.67;13.40;;;;;;;0.29;90.70;98518.53;6116855;28;20716;-90
2023/04/10 04:05:38;;;;;;;20.63;12.60;;;;;;;-0.12;90.47;98463.28;6145442;28;20323;-89
2023/04/10 04:08:58;;;;;;;18.20;11.97;;;;;;;0.11;90.50;98509.94;6130345;28;20251;-89
2023/04/10 04:12:29;;;;;;;23.20;14.40;;;;;;;-0.74;90.18;98391.03;6121343;28;20230;-90
2023/04/10 04:15:38;;;;;;;19.77;13.60;;;;;;;0.06;90.89;98506.94;6123477;28;20722;-90
2023/04/10 04:18:59;;;;;;;24.83;13.63;;;;;;;-0.73;90.48;98388.31;6130783;28;20640;-89
2023/04/10 04:22:05;;;;;;;23.40;14.97;;;;;;;-0.55;90.48;98415.22;6118453;28;20267;-89
2023/04/10 04:25:36;;;;;;;24.37;15.17;;;;;;;-0.04;90.66;98514.91;6059775;28;20227;-90
2023/04/10 04:28:54;;;;;;;22.63;13.17;;;;;;;0.25;90.53;98552.09;6127646;28;20586;-89
2023/04/10 04:32:12;;;;;;;19.13;12.17;;;;;;;-0.08;90.46;98516.19;6128421;28;20710;-89
2023/04/10 04:35:34;;;;;;;19.67;13.03;;;;;;;0.22;90.62;98554.19;6130380;28;20249;-89
2023/04/10 04:38:59;;;;;;;19.60;13.43;;;;;;;-0.53;90.54;98452.53;6134957;28;20761;-89
2023/04/10 04:42:31;;;;;;;19.47;12.90;;;;;;;-0.18;90.63;98539.03;6104939;28;20285;-89
2023/04/10 04:45:56;;;;;;;22.93;13.67;;;;;;;-1.28;90.57;98320.53;6113441;28;20699;-90
2023/04/10 04:49:22;;;;;;;22.60;14.17;;;;;;;-0.52;90.59;98446.34;6126474;28;20235;-90
2023/04/10 04:52:44;;;;;;;21.40;12.10;;;;;;;-0.46;90.70;98457.97;6084470;28;20478;-90
2023/04/10 04:56:05;;;;;;;19.70;12.47;;;;;;;-0.30;90.77;98496.53;6119798;28;21008;-89
2023/04/10 04:59:42;;;;;;;19.27;13.37;;;;;;;0.01;90.97;98510.03;6053972;28;20297;-90
2023/04/10 05:02:52;;;;;;;18.77;12.47;;;;;;;0.11;90.47;98520.41;6133585;28;20233;-90
2023/04/10 05:06:08;;;;;;;19.53;12.60;;;;;;;-1.55;90.65;98261.34;6133126;28;20241;-90
2023/04/10 05:09:24;;;;;;;19.90;11.83;;;;;;;0.07;90.94;98504.16;6117336;28;20757;-89
2023/04/10 05:13:04;;;;;;;23.00;13.53;;;;;;;0.02;90.65;98488.09;6055330;29;20236;-90
2023/04/10 05:16:33;;;;;;;21.27;12.50;;;;;;;0.72;91.17;98571.81;6076110;28;20295;-89
2023/04/10 05:19:46;;;;;;;23.47;13.93;;;;;;;0.00;91.28;98421.97;6119154;28;20389;-89
2023/04/10 05:23:09;;;;;;;24.33;13.90;;;;;;;0.42;91.26;98477.00;6128266;28;20586;-91
2023/04/10 05:26:12;;;;;;;23.53;13.93;;;;;;;0.44;91.16;98474.19;6134880;28;20230;-89
2023/04/10 05:29:43;;;;;;;28.27;15.93;;;;;;;0.06;91.56;98394.31;6121902;28;20389;-88
2023/04/10 05:32:52;;;;;;;32.50;18.70;;;;;;;1.17;91.68;98465.69;6131703;28;20647;-89
2023/04/10 05:36:03;;;;;;;29.20;16.43;;;;;;;1.73;91.87;98530.56;6149200;28;20227;-90
2023/04/10 05:39:25;;;;;;;29.80;17.60;;;;;;;2.04;91.89;98529.88;6116654;28;20232;-91
2023/04/10 05:42:53;;;;;;;27.17;17.50;;;;;;;2.03;91.22;98509.84;6126739;28;20231;-90
2023/04/10 05:46:18;;;;;;;27.53;17.03;;;;;;;0.42;91.05;98253.41;6081503;28;20287;-89
2023/04/10 05:49:30;;;;;;;27.97;16.73;;;;;;;1.53;90.88;98422.41;6133785;28;20247;-89
2023/04/10 05:52:54;;;;;;;23.17;14.07;;;;;;;2.00;90.63;98510.16;6132834;28;20375;-90
2023/04/10 05:56:09;;;;;;;26.37;16.20;;;;;;;2.02;91.04;98481.91;6123740;28;20254;-90
2023/04/10 05:59:30;;;;;;;22.93;14.70;;;;;;;2.45;90.92;98553.44;6132133;28;20434;-89
2023/04/10 06:02:55;;;;;;;21.77;15.87;;;;;;;2.62;91.06;98556.88;6125899;28;20599;-89
2023/04/10 06:06:04;;;;;;;20.33;14.53;;;;;;;2.85;89.07;98508.56;6135626;28;20465;-90
2023/04/10 06:09:06;;;;;;;18.87;14.30;;;;;;;3.43;87.52;98548.56;6149112;28;20253;-89
2023/04/10 06:12:08;;;;;;;18.03;13.07;;;;;;;3.98;83.11;98551.94;6117279;28;20713;-90
2023/04/10 06:15:13;;;;;;;17.97;12.33;;;;;;;4.64;80.95;98588.06;6117394;28;20584;-89
2023/04/10 06:18:16;;;;;;;14.90;11.50;;;;;;;4.19;80.78;98509.91;6097705;28;20233;-90
2023/04/10 06:21:18;;;;;;;15.03;11.37;;;;;;;3.79;79.73;98414.41;6116767;28;20225;-89
2023/04/10 06:24:20;;;;;;;13.63;10.63;;;;;;;4.44;78.65;98525.47;6129427;28;20276;-89
2023/04/10 06:27:23;;;;;;;13.83;11.03;;;;;;;5.07;76.60;98529.28;6118156;28;20238;-88
2023/04/10 06:30:25;;;;;;;11.60;10.03;;;;;;;4.90;76.14;98497.03;6151459;28;20238;-89
2023/04/10 06:33:27;;;;;;;13.03;10.67;;;;;;;5.21;76.38;98522.34;6160206;28;20233;-89
2023/04/10 06:36:29;;;;;;;12.67;10.17;;;;;;;5.10;76.54;98518.38;6155902;28;20230;-89
2023/04/10 06:39:36;;;;;;;12.93;10.17;;;;;;;5.13;76.39;98502.97;6161610;28;20258;-88
2023/04/10 06:42:39;;;;;;;14.50;11.07;;;;;;;4.17;76.71;98373.94;6142261;28;20226;-89
2023/04/10 06:46:03;;;;;;;13.73;9.90;;;;;;;5.17;76.01;98503.41;6161064;28;20286;-90
2023/04/10 06:49:05;;;;;;;14.17;11.57;;;;;;;5.47;74.84;98513.88;6122248;28;20242;-91
2023/04/10 06:52:10;;;;;;;13.43;10.90;;;;;;;5.94;73.72;98567.03;6132562;28;20270;-89
2023/04/10 06:55:12;;;;;;;12.27;10.53;;;;;;;5.24;73.46;98440.09;6115606;28;20242;-90
2023/04/10 06:58:14;;;;;;;12.97;9.97;;;;;;;5.55;74.21;98492.63;6139209;28;20261;-89
2023/04/10 07:01:16;;;;;;;11.87;10.03;;;;;;;5.67;73.59;98520.19;6130298;28;20717;-89
2023/04/10 07:04:20;;;;;;;13.83;10.33;;;;;;;4.74;73.14;98331.78;6130896;28;20720;-90
2023/04/10 07:07:22;;;;;;;14.97;10.77;;;;;;;3.97;73.00;98207.63;6127673;28;20243;-90
2023/04/10 07:10:24;;;;;;;12.30;9.70;;;;;;;6.50;72.33;98557.47;6131634;28;20245;-90
2023/04/10 07:13:26;;;;;;;11.37;9.33;;;;;;;4.88;71.49;98296.59;6142935;28;20730;-90
2023/04/10 07:16:28;;;;;;;10.80;9.50;;;;;;;6.97;71.21;98607.88;6116262;28;20236;-90
2023/04/10 07:19:31;;;;;;;11.67;9.87;;;;;;;6.10;72.50;98491.03;6131027;28;20265;-90
2023/04/10 07:22:33;;;;;;;11.07;9.37;;;;;;;3.81;71.71;98111.97;6131214;28;20280;-89
2023/04/10 07:25:36;;;;;;;12.13;10.03;;;;;;;6.57;69.67;98534.50;6147271;28;20247;-90
2023/04/10 07:28:39;;;;;;;11.43;9.97;;;;;;;7.07;70.69;98628.69;6109644;28;20232;-90
2023/04/10 07:31:41;;;;;;;10.37;9.20;;;;;;;6.03;70.55;98464.56;6128935;28;20233;-90
2023/04/10 07:34:44;;;;;;;12.07;9.83;;;;;;;6.17;70.19;98470.75;6116482;28;20997;-91
2023/04/10 07:37:50;;;;;;;13.47;10.50;;;;;;;5.30;69.56;98339.75;6129938;28;20311;-89
2023/04/10 07:40:56;;;;;;;12.73;10.63;;;;;;;4.18;70.98;98141.72;6131002;28;20230;-90
2023/04/10 07:43:59;;;;;;;12.63;10.47;;;;;;;6.80;69.15;98547.44;6130938;28;20246;-89
2023/04/10 07:47:02;;;;;;;11.70;10.13;;;;;;;5.76;68.91;98397.41;6119704;28;20241;-91
2023/04/10 07:50:05;;;;;;;13.43;11.57;;;;;;;5.79;70.75;98455.19;6115178;28;20231;-91
2023/04/10 07:53:08;;;;;;;11.73;10.50;;;;;;;6.39;69.55;98519.13;6126944;28;20231;-91
2023/04/10 07:56:17;;;;;;;12.83;11.33;;;;;;;5.59;68.61;98348.50;6129437;28;20639;-90
2023/04/10 07:59:19;;;;;;;14.90;12.53;;;;;;;5.80;68.51;98393.38;6120518;28;20283;-90
2023/04/10 08:02:22;;;;;;;12.30;11.00;;;;;;;6.35;69.16;98479.00;6118276;28;20239;-89
2023/04/10 08:05:24;;;;;;;14.40;11.67;;;;;;;5.34;68.63;98274.97;6130176;28;20383;-92
2023/04/10 08:08:26;;;;;;;12.80;11.27;;;;;;;5.99;67.98;98383.16;6130749;28;20256;-91
2023/04/10 08:11:31;;;;;;;15.03;12.80;;;;;;;6.64;68.36;98438.22;6114279;28;20226;-90
2023/04/10 08:14:33;;;;;;;14.37;12.20;;;;;;;7.07;67.84;98524.56;6122595;28;20239;-90
2023/04/10 08:17:35;;;;;;;14.03;12.13;;;;;;;6.62;66.65;98405.03;6123009;28;20759;-91
2023/04/10 08:20:37;;;;;;;16.00;13.07;;;;;;;6.07;67.19;98314.25;6113916;28;20239;-90
2023/04/10 08:23:39;;;;;;;15.07;12.17;;;;;;;6.97;65.19;98418.97;6129980;28;20740;-89
2023/04/10 08:26:41;;;;;;;15.70;13.47;;;;;;;7.06;67.40;98436.31;6130343;28;20234;-90
2023/04/10 08:29:43;;;;;;;14.83;12.80;;;;;;;7.06;64.21;98409.00;6129786;28;20242;-90
2023/04/10 08:32:45;;;;;;;18.20;14.57;;;;;;;8.43;63.47;98640.13;6113764;28;20230;-89
2023/04/10 08:35:47;;;;;;;19.80;13.73;;;;;;;7.50;63.06;98472.06;6128732;28;20744;-90
2023/04/10 08:38:50;;;;;;;14.90;13.30;;;;;;;6.35;64.75;98272.59;6130086;28;20583;-89
2023/04/10 08:41:53;;;;;;;15.27;12.70;;;;;;;7.65;63.13;98456.78;6130262;28;20233;-89
2023/04/10 08:44:55;;;;;;;16.13;13.53;;;;;;;8.23;62.85;98530.44;6114911;28;20313;-91
2023/04/10 08:48:01;;;;;;;14.80;12.57;;;;;;;6.84;61.66;98252.91;6114079;28;20235;-91
2023/04/10 08:51:06;;;;;;;16.53;14.27;;;;;;;7.44;63.09;98359.72;6129187;28;20250;-91
2023/04/10 08:54:18;;;;;;;15.20;12.93;;;;;;;7.37;61.14;98364.19;6125920;28;20687;-89
2023/04/10 08:57:21;;;;;;;16.60;13.97;;;;;;;7.33;63.79;98357.66;6115325;28;20242;-90
2023/04/10 09:00:25;;;;;;;15.07;12.30;;;;;;;7.40;61.93;98323.22;6113945;28;20253;-90
2023/04/10 09:03:27;;;;;;;16.97;13.07;;;;;;;8.24;60.20;98399.38;6129428;28;20707;-91
2023/04/10 09:06:30;;;;;;;16.20;13.47;;;;;;;6.42;60.26;98174.72;6122847;28;20641;-90
2023/04/10 09:09:33;;;;;;;15.40;13.00;;;;;;;9.18;61.33;98627.34;6139297;28;20245;-90
2023/04/10 09:12:46;;;;;;;16.33;12.83;;;;;;;8.40;63.68;98451.22;6133960;28;20828;-91
2023/04/10 09:15:57;;;;;;;15.03;12.73;;;;;;;9.59;60.85;98580.94;6130931;28;20325;-90
2023/04/10 09:19:01;;;;;;;15.00;13.40;;;;;;;8.90;62.37;98470.84;6126130;28;20235;-90
2023/04/10 09:22:07;;;;;;;14.40;12.87;;;;;;;9.99;59.94;98608.13;6115380;28;20703;-90
2023/04/10 09:25:31;;;;;;;14.93;12.97;;;;;;;9.18;60.70;98491.75;6131293;28;20234;-91
2023/04/10 09:29:00;;;;;;;15.83;13.77;;;;;;;10.12;59.14;98595.75;6146767;28;20242;-90
2023/04/10 09:32:02;;;;;;;15.77;12.97;;;;;;;9.07;60.33;98496.94;6128947;28;20261;-91
2023/04/10 09:35:06;;;;;;;17.60;14.50;;;;;;;9.72;61.54;98596.00;6122583;28;20319;-90
2023/04/10 09:38:19;;;;;;;19.27;15.30;;;;;;;9.74;59.41;98540.72;6120557;28;20226;-90
2023/04/10 09:41:21;;;;;;;16.93;14.63;;;;;;;8.45;61.23;98377.06;6114478;28;20312;-89
2023/04/10 09:44:34;;;;;;;17.47;14.57;;;;;;;9.40;60.14;98524.16;6132550;28;20238;-91
2023/04/10 09:47:36;;;;;;;17.40;14.80;;;;;;;8.58;61.60;98362.91;6129383;28;20321;-89
2023/04/10 09:50:42;;;;;;;16.70;14.90;;;;;;;9.29;58.78;98448.53;6132581;28;20245;-89
2023/04/10 09:53:49;;;;;;;17.73;15.20;;;;;;;8.72;58.58;98375.91;6118788;28;20267;-89
2023/04/10 09:56:51;;;;;;;17.27;14.67;;;;;;;8.23;58.85;98247.25;6132106;28;20272;-89
2023/04/10 09:59:59;;;;;;;18.57;15.00;;;;;;;9.83;56.66;98486.22;6127166;28;20301;-90
2023/04/10 10:03:06;;;;;;;19.27;16.07;;;;;;;9.75;56.80;98426.13;6102199;28;20239;-91
2023/04/10 10:06:10;;;;;;;17.93;15.20;;;;;;;9.01;57.79;98275.34;6130237;28;20775;-90
2023/04/10 10:09:13;;;;;;;18.03;14.97;;;;;;;10.25;55.00;98478.53;6124983;28;20236;-89
2023/04/10 10:12:22;;;;;;;19.43;15.30;;;;;;;7.98;57.65;98166.78;6117188;28;20216;-90
2023/04/10 10:15:29;;;;;;;15.93;14.23;;;;;;;10.71;56.92;98533.97;6123803;28;20235;-90
2023/04/10 10:18:42;;;;;;;15.40;13.53;;;;;;;8.96;55.51;98288.47;6117912;28;20665;-90
2023/04/10 10:21:45;;;;;;;16.33;13.73;;;;;;;10.36;54.86;98535.56;6143163;28;20278;-91
2023/04/10 10:24:49;;;;;;;17.90;15.20;;;;;;;10.64;56.03;98535.06;6132666;28;20364;-91
2023/04/10 10:27:53;;;;;;;17.27;13.77;;;;;;;10.18;55.22;98441.25;6118200;28;20228;-89
2023/04/10 10:30:56;;;;;;;18.10;14.83;;;;;;;9.66;55.38;98307.72;6128055;28;20785;-90
2023/04/10 10:34:08;;;;;;;16.57;14.37;;;;;;;8.71;55.87;98143.16;6129406;28;20229;-90
2023/04/10 10:37:11;;;;;;;15.23;13.63;;;;;;;11.28;55.57;98521.22;6157778;28;20260;-90
2023/04/10 10:40:19;;;;;;;15.23;13.63;;;;;;;11.40;53.30;98505.25;6134276;28;20248;-89
2023/04/10 10:43:36;;;;;;;15.70;14.00;;;;;;;11.19;52.13;98444.41;6157117;28;20230;-89
2023/04/10 10:46:47;;;;;;;15.83;13.03;;;;;;;11.53;52.89;98509.59;6164871;28;20222;-89
2023/04/10 10:49:53;;;;;;;14.97;13.37;;;;;;;10.92;51.61;98450.06;6150502;28;20236;-89
2023/04/10 10:52:56;;;;;;;14.87;13.23;;;;;;;9.89;52.17;98260.97;6135548;28;20570;-89
2023/04/10 10:56:18;;;;;;;14.07;12.57;;;;;;;9.71;49.49;98281.25;6118425;28;20240;-90
2023/04/10 10:59:42;;;;;;;14.63;12.87;;;;;;;11.39;51.60;98495.63;6133823;28;20666;-91
2023/04/10 11:02:45;;;;;;;13.50;12.10;;;;;;;9.57;50.77;98203.44;6117780;28;20227;-91
2023/04/10 11:05:56;;;;;;;15.50;13.00;;;;;;;11.80;49.28;98445.94;6132441;28;20605;-89
2023/04/10 11:08:58;;;;;;;13.83;12.33;;;;;;;10.54;47.24;98199.91;6131287;28;20237;-89
2023/04/10 11:12:00;;;;;;;14.80;12.60;;;;;;;12.01;49.34;98442.72;6116714;28;20244;-92
2023/04/10 11:15:05;;;;;;;13.57;12.07;;;;;;;11.14;49.20;98262.94;6127885;28;20249;-89
2023/04/10 11:18:08;;;;;;;14.50;12.87;;;;;;;12.35;47.66;98470.47;6131334;28;20226;-90
2023/04/10 11:21:17;;;;;;;15.37;12.60;;;;;;;10.87;48.68;98238.56;6133957;28;20757;-90
2023/04/10 11:24:19;;;;;;;14.10;12.53;;;;;;;12.20;48.42;98394.53;6131443;28;20219;-90
2023/04/10 11:27:57;;;;;;;15.30;13.10;;;;;;;12.37;48.01;98444.34;6127205;28;20236;-91
2023/04/10 11:31:22;;;;;;;13.30;11.90;;;;;;;12.33;48.19;98440.50;6079721;29;20607;-90
2023/04/10 11:34:26;;;;;;;13.10;11.27;;;;;;;10.75;44.49;98206.56;6082700;29;20274;-90
2023/04/10 11:37:28;;;;;;;12.00;10.80;;;;;;;11.47;45.62;98369.88;6080531;29;20234;-90
2023/04/10 11:40:30;;;;;;;11.93;10.67;;;;;;;10.70;46.84;98249.09;6066263;29;20739;-89
2023/04/10 11:43:33;;;;;;;13.17;11.80;;;;;;;10.37;46.97;98228.25;6065677;29;20272;-90
2023/04/10 11:46:40;;;;;;;15.20;13.60;;;;;;;11.09;48.40;98357.78;6080972;29;20747;-89
2023/04/10 11:49:42;;;;;;;14.03;12.57;;;;;;;10.83;49.41;98320.81;6066202;29;20232;-90
2023/04/10 11:52:44;;;;;;;14.90;13.30;;;;;;;11.57;49.65;98426.16;6081351;29;20243;-89
2023/04/10 11:55:46;;;;;;;13.90;12.00;;;;;;;10.29;49.08;98278.13;6081372;29;20324;-90
2023/04/10 11:58:51;;;;;;;14.10;12.63;;;;;;;10.03;49.61;98201.22;6080451;29;20293;-90
2023/04/10 12:02:05;;;;;;;14.57;12.17;;;;;;;10.33;47.57;98187.94;6081442;29;20325;-91
2023/04/10 12:05:08;;;;;;;13.43;11.07;;;;;;;10.51;46.98;98198.53;6110324;28;20292;-90
2023/04/10 12:08:10;;;;;;;14.10;11.10;;;;;;;11.10;46.98;98289.25;6130699;28;20328;-91
2023/04/10 12:11:13;;;;;;;11.50;10.30;;;;;;;11.55;46.61;98334.06;6129884;28;20275;-90
2023/04/10 12:14:15;;;;;;;13.40;10.10;;;;;;;11.61;44.47;98367.81;6091815;28;20234;-90
2023/04/10 12:17:18;;;;;;;11.40;10.30;;;;;;;11.17;46.74;98327.28;6113949;28;20253;-90
2023/04/10 12:20:22;;;;;;;15.47;12.83;;;;;;;9.84;49.59;98120.63;6137589;28;20721;-90
2023/04/10 12:23:26;;;;;;;14.67;13.13;;;;;;;10.53;48.41;98204.44;6121499;29;20316;-89
2023/04/10 12:26:29;;;;;;;14.70;12.20;;;;;;;10.81;50.74;98203.78;6126719;28;20227;-91
2023/04/10 12:29:31;;;;;;;13.87;12.37;;;;;;;11.13;46.45;98208.78;6129444;28;20237;-90
2023/04/10 12:32:33;;;;;;;12.43;11.23;;;;;;;11.09;45.56;98192.47;6127277;28;20339;-90
2023/04/10 12:35:41;;;;;;;11.93;10.73;;;;;;;12.43;44.91;98394.50;6121488;28;20550;-91
2023/04/10 12:38:43;;;;;;;12.43;11.13;;;;;;;10.22;45.11;98079.53;6102960;28;20560;-91
2023/04/10 12:41:46;;;;;;;12.17;10.53;;;;;;;12.14;44.63;98374.91;6116092;28;20277;-89
2023/04/10 12:44:56;;;;;;;13.03;11.27;;;;;;;10.98;45.42;98200.44;6134297;28;20234;-90
2023/04/10 12:47:58;;;;;;;11.50;10.33;;;;;;;10.82;46.14;98188.59;6127167;28;20235;-90
2023/04/10 12:51:01;;;;;;;13.77;12.17;;;;;;;11.95;47.27;98381.44;6134208;28;20703;-90
2023/04/10 12:54:03;;;;;;;13.90;12.40;;;;;;;11.02;46.84;98263.72;6149628;28;20691;-90
2023/04/10 12:57:05;;;;;;;13.43;11.73;;;;;;;11.11;46.80;98274.88;6085976;29;20242;-90
2023/04/10 13:00:10;;;;;;;13.17;11.47;;;;;;;10.51;48.67;98144.44;6095814;29;20226;-91
2023/04/10 13:03:12;;;;;;;12.07;10.70;;;;;;;12.25;47.37;98379.41;6079253;29;20226;-90
2023/04/10 13:06:15;;;;;;;11.63;9.90;;;;;;;11.70;44.43;98211.63;6088581;29;20218;-91
2023/04/10 13:09:17;;;;;;;12.90;11.60;;;;;;;11.22;43.89;98078.56;6094219;29;20211;-89
2023/04/10 13:12:19;;;;;;;13.17;11.37;;;;;;;12.10;43.86;98246.34;6095082;29;20244;-91
2023/04/10 13:15:21;;;;;;;12.97;11.47;;;;;;;11.29;44.82;98125.41;6094209;29;20242;-91
2023/04/10 13:18:23;;;;;;;11.20;10.00;;;;;;;12.69;46.28;98346.88;6101870;29;20227;-90
2023/04/10 13:21:27;;;;;;;11.63;10.43;;;;;;;12.14;45.47;98284.09;6080198;29;20246;-90
2023/04/10 13:24:30;;;;;;;11.13;9.93;;;;;;;12.01;45.14;98277.16;6094195;29;20227;-91
2023/04/10 13:27:32;;;;;;;11.63;10.40;;;;;;;10.47;45.53;98093.47;6105645;29;20230;-90
2023/04/10 13:30:35;;;;;;;12.03;10.53;;;;;;;10.58;45.41;98110.50;6077120;29;20819;-89
2023/04/10 13:33:37;;;;;;;12.20;10.53;;;;;;;10.82;45.64;98200.06;6094633;29;20231;-89
2023/04/10 13:36:40;;;;;;;13.27;11.60;;;;;;;10.48;46.47;98134.25;6108781;29;20316;-90
2023/04/10 13:39:42;;;;;;;10.50;9.40;;;;;;;10.13;44.69;98095.00;6079152;29;20340;-90
2023/04/10 13:42:44;;;;;;;10.83;9.73;;;;;;;9.73;45.74;98028.28;6090083;29;20729;-90
2023/04/10 13:45:48;;;;;;;12.10;10.63;;;;;;;10.49;46.07;98154.50;6078593;29;20239;-90
2023/04/10 13:48:51;;;;;;;12.30;11.10;;;;;;;11.03;45.86;98220.06;6077952;29;20245;-90
2023/04/10 13:51:53;;;;;;;11.80;10.57;;;;;;;11.23;46.28;98262.38;6092696;29;20333;-90
2023/04/10 13:54:55;;;;;;;10.80;9.70;;;;;;;10.27;47.26;98085.00;6093276;29;20244;-89
2023/04/10 13:57:57;;;;;;;11.33;10.13;;;;;;;11.46;47.84;98229.53;6123837;28;20230;-91
2023/04/10 14:01:00;;;;;;;11.27;10.07;;;;;;;11.90;47.03;98264.66;6124941;28;20230;-90
2023/04/10 14:04:02;;;;;;;11.17;9.83;;;;;;;12.42;43.97;98310.03;6101914;28;20718;-91
2023/04/10 14:07:04;;;;;;;10.20;9.20;;;;;;;11.22;43.76;98078.56;6132540;28;20655;-89
2023/04/10 14:10:07;;;;;;;12.97;11.57;;;;;;;12.16;45.10;98219.75;6134276;28;20249;-89
2023/04/10 14:13:10;;;;;;;13.73;11.03;;;;;;;11.86;45.72;98186.06;6132597;28;20245;-90
2023/04/10 14:16:13;;;;;;;13.13;11.50;;;;;;;12.48;44.85;98262.84;6128529;28;20592;-90
2023/04/10 14:19:15;;;;;;;12.90;11.10;;;;;;;12.01;45.07;98215.72;6131972;28;20245;-89
2023/04/10 14:22:17;;;;;;;13.77;11.37;;;;;;;11.00;45.51;98116.53;6132390;28;20328;-90
2023/04/10 14:25:19;;;;;;;13.57;11.33;;;;;;;10.08;45.94;98007.84;6116028;28;20241;-90